x

Virginia Beach 64 Nm East Of Virginia Beach, Va (44014) Wave Buoy

6:50am - Sat 13th Feb 2016 All times are EST. -5 hours from GMT.

  • Sig Wave height 5.6ft
  • Swell Direction
  • Peak Period 6s
  • Average Period 5s
  • Wind
    27mph, 34mph gusts
  • Sea Temp 48°f
  • Air Temp 35°f
  • Sea Pressure 1017.1mb
  • Virginia Beach 64 Nm East Of Virginia Beach, Va
  • Virginia Beach 64 Nm East Of Virginia Beach, Va

More Historic Weather Station data

Upgrade to MSW Pro to gain access to the past 30 days of data for over 8000 Wavebouys and Weather Stations around the globe.

Join Pro

Comparision Forecast

View Surf forecast
   
Sat 02/13 6:50am 5.5ft 6s 5s 27 34 mph 1017.1mb 48f 35f
5:50am 5ft 6s 4s 22 31 mph 1016.3mb 48f 35f
4:50am 5ft 5s 4s 25 31 mph 1015.7mb 48f 35f
3:50am 5.5ft 5s 4s 25 31 mph 1015.1mb 48f 35f
2:50am 5ft 5s 4s 25 34 mph 1014.8mb 48f 35f
1:50am 4.5ft 5s 4s 27 34 mph 1014.6mb 48f 36f
12:50am 3ft 4s 4s 25 29 mph 1014.3mb 48f 36f
Fri 02/12 11:50pm 2.5ft 3s 3s 22 27 mph 1014.2mb 48f 37f
10:50pm 2ft 8s 4s 16 20 mph 1014.5mb 48f 37f
9:50pm 2ft 9s 4s 13 16 mph 1014.8mb 48f 36f
8:50pm 2ft 9s 5s 11 13 mph 1014.6mb 48f 36f
7:50pm 2ft 7s 5s 4 7 mph 1014.1mb 48f 36f
6:50pm 2ft 7s 4s 7 11 mph 1015.1mb 48f 34f
5:50pm 2ft 5s 5s 9 13 mph 1015.8mb 48f 33f
4:50pm 2.5ft 6s 5s 11 13 mph 1016.9mb 48f 31f
3:50pm 2.5ft 6s 5s 9 11 mph 1018.2mb 48f 30f
2:50pm 2.5ft 6s 5s 4 7 mph 1019.7mb 48f 30f
1:50pm 2.5ft 6s 5s 2 9 mph 1021mb 50f 33f
12:50pm 2.5ft 6s 5s 2 7 mph 1022mb 50f 32f
11:50am 3ft 6s 5s 4 7 mph 1023.9mb 50f 32f
10:50am 3.5ft 6s 5s 9 13 mph 1024.6mb 50f 31f
9:50am 3.5ft 6s 5s 4 9 mph 1026mb 50f 31f
8:50am 3.5ft 7s 5s 7 9 mph 1026.2mb 50f 31f
7:50am 3.5ft 6s 5s 11 16 mph 1025.9mb 50f 31f
6:50am 4ft 7s 5s 13 18 mph 1026mb 50f 30f
5:50am 4.5ft 7s 5s 9 16 mph 1026.8mb 49f 30f
4:50am 5ft 7s 5s 11 16 mph 1026.3mb 49f 31f
3:50am 5ft 7s 5s 16 20 mph 1026mb 49f 31f
2:50am 5ft 7s 5s 16 22 mph 1026.2mb 48f 31f
1:50am 5ft 7s 5s 16 20 mph 1026.1mb 49f 33f
12:50am 5ft 6s 5s 18 22 mph 1025.8mb 49f 33f
Thu 02/11 11:50pm 5ft 7s 5s 18 22 mph 1025.4mb 49f 34f
10:50pm 5ft 6s 5s 18 25 mph 1025.2mb 49f 36f
9:50pm 5ft 6s 5s 20 25 mph 1024.7mb 49f 36f
8:50pm 5ft 6s 5s 20 27 mph 1024mb 49f 36f
7:50pm 5ft 6s 5s 22 29 mph 1023.6mb 48f 35f
6:50pm 5ft 6s 5s 22 27 mph 1022.6mb 48f 35f
5:50pm 5.5ft 6s 5s 22 29 mph 1021.5mb 48f 34f
4:50pm 6ft 6s 5s 22 29 mph 1021mb 48f 33f
3:50pm 6ft 6s 5s 27 36 mph 1020.1mb 48f 32f
2:50pm 6.5ft 6s 5s 22 29 mph 1019.3mb 48f 32f
1:50pm 6.5ft 6s 5s 25 29 mph 1018.7mb 48f 31f
12:50pm 7.5ft 6s 5s 25 31 mph 1018.7mb 49f 30f
11:50am 7ft 7s 5s 25 34 mph 1019.2mb 49f 30f
10:50am 7ft 6s 5s 25 31 mph 1019.2mb 49f 30f
9:50am 6.5ft 6s 5s 25 29 mph 1019.3mb 48f 30f
8:50am 7ft 6s 5s 25 31 mph 1019mb 48f 31f
7:50am 7ft 7s 5s 25 34 mph 1018mb 48f 31f
6:50am 7.5ft 7s 6s 22 31 mph 1017.2mb 48f 32f
5:50am 7.5ft 7s 5s 25 31 mph 1016.3mb 49f 33f
4:50am 7.5ft 6s 5s 25 31 mph 1015mb 49f 33f
3:50am 7ft 6s 5s 27 34 mph 1014.2mb 49f 33f
2:50am 8ft 6s 5s 29 36 mph 1013.7mb 49f 33f
1:50am 8.5ft 7s 5s 31 38 mph 1012.7mb 49f 35f
12:50am 9ft 6s 5s 29 36 mph 1012.7mb 49f 36f
Wed 02/10 11:50pm 7.5ft 5s 5s 34 43 mph 1011.7mb 49f 37f
10:50pm 6.5ft 5s 5s 27 36 mph 1011.3mb 49f 40f
9:50pm 6ft 5s 5s 25 34 mph 1010.7mb 49f 41f
8:50pm 5ft 10s 5s 25 34 mph 1010.5mb 49f 42f
7:50pm 5ft 12s 5s 20 25 mph 1010.5mb 49f 42f
6:50pm 5ft 13s 6s 16 20 mph 1010.4mb 49f 41f
5:50pm 5ft 7s 6s 16 22 mph 1010.3mb 49f 40f
4:50pm 5.5ft 11s 6s 16 20 mph 1010mb 49f 39f
3:50pm 5.5ft 12s 6s 13 20 mph 1009.4mb 50f 38f
2:50pm 6.5ft 5s 6s 16 20 mph 1009.4mb 50f 38f
1:50pm 7ft 12s 6s 18 22 mph 1009.5mb 50f 37f
11:50am 7ft 6s 5s 20 27 mph 1009.8mb 50f 37f
10:50am 7ft 13s 5s 20 27 mph 1010.1mb 51f 37f
9:50am 7.5ft 6s 6s 22 29 mph 1009.6mb 50f 36f
8:50am 8ft 13s 6s 25 31 mph 1009mb 50f 36f
7:50am 8ft 6s 6s 29 34 mph 1008.2mb 50f 35f
6:50am 8ft 14s 6s 27 31 mph 1007.6mb 50f 36f
5:50am 8ft 14s 6s 25 31 mph 1006.7mb 50f 37f
4:50am 8ft 13s 6s 25 31 mph 1006.1mb 50f 38f
3:50am 9ft 14s 7s 27 34 mph 1005.8mb 50f 40f
2:50am 9ft 14s 7s 25 29 mph 1005.8mb 50f 41f
1:50am 8.5ft 13s 7s 22 27 mph 1005.7mb 50f 41f
12:50am 10ft 14s 7s 25 31 mph 1005.4mb 50f 42f
Tue 02/09 11:50pm 10ft 14s 7s 27 34 mph 1005mb 50f 43f
10:50pm 9.5ft 14s 7s 27 34 mph 1004.7mb 51f 44f
9:50pm 10ft 14s 8s 27 34 mph 1004.4mb 50f 44f
8:50pm 10.5ft 15s 8s 25 31 mph 1004.2mb 50f 44f
7:50pm 10.5ft 14s 8s 25 31 mph 1003.5mb 50f 46f
6:50pm 10ft 13s 8s 22 31 mph 1002.9mb 50f 46f
5:50pm 11ft 14s 9s 25 34 mph 1002.2mb 50f 47f
4:50pm 9.5ft 15s 9s 18 25 mph 1001.7mb 50f 47f
3:50pm 9ft 15s 9s 11 18 mph 1001.3mb 50f 46f
2:50pm 10ft 15s 9s 13 20 mph 1000.9mb 51f 44f
1:50pm 11ft 14s 9s 18 25 mph 1000.9mb 51f 44f